createdAt,value
2018-01-15T00:00:41.647Z,15.13
2018-01-15T00:03:08.197Z,17.80
2018-01-15T00:05:35.673Z,16.87
2018-01-15T00:08:05.296Z,16.77
2018-01-15T00:10:31.907Z,15.50
2018-01-15T00:12:58.486Z,16.02
2018-01-15T00:15:25.108Z,19.55
2018-01-15T00:17:52.071Z,17.60
2018-01-15T00:20:18.859Z,15.95
2018-01-15T00:22:45.449Z,14.87
2018-01-15T00:25:12.090Z,19.23
2018-01-15T00:27:38.631Z,18.73
2018-01-15T00:30:05.301Z,16.50
2018-01-15T00:32:31.916Z,15.93
2018-01-15T00:35:00.007Z,21.67
2018-01-15T00:37:27.408Z,17.92
2018-01-15T00:39:53.976Z,16.08
2018-01-15T00:42:20.558Z,21.33
2018-01-15T00:44:47.136Z,15.55
2018-01-15T00:47:15.802Z,17.35
2018-01-15T00:49:42.989Z,17.23
2018-01-15T00:52:10.401Z,16.87
2018-01-15T00:54:36.918Z,15.55
2018-01-15T00:57:03.662Z,18.55
2018-01-15T00:59:33.393Z,17.45
2018-01-15T01:02:00.342Z,18.08
2018-01-15T01:04:28.034Z,16.00
2018-01-15T01:06:54.823Z,16.45
2018-01-15T01:09:21.452Z,18.73
2018-01-15T01:11:48.304Z,16.60
2018-01-15T01:14:15.063Z,14.05
2018-01-15T01:16:41.614Z,17.17
2018-01-15T01:19:08.375Z,17.02
2018-01-15T01:21:35.037Z,15.75
2018-01-15T01:24:01.647Z,15.80
2018-01-15T01:26:28.229Z,16.42
2018-01-15T01:28:55.374Z,16.77
2018-01-15T01:31:21.928Z,17.98
2018-01-15T01:33:48.541Z,15.55
2018-01-15T01:36:18.060Z,18.73
2018-01-15T01:38:45.242Z,18.20
2018-01-15T01:41:11.552Z,14.80
2018-01-15T01:43:37.863Z,16.98
2018-01-15T01:46:05.042Z,15.43
2018-01-15T01:48:31.584Z,17.50
2018-01-15T01:50:58.265Z,18.52
2018-01-15T01:53:25.815Z,17.42
2018-01-15T01:55:52.544Z,15.95
2018-01-15T01:58:19.085Z,16.60
2018-01-15T02:00:46.627Z,18.27
2018-01-15T02:03:13.475Z,19.65
2018-01-15T02:05:40.229Z,18.77
2018-01-15T02:08:06.707Z,21.20
2018-01-15T02:10:33.260Z,16.73
2018-01-15T02:12:59.880Z,19.05
2018-01-15T02:15:26.251Z,19.83
2018-01-15T02:17:52.640Z,20.88
2018-01-15T02:20:19.123Z,19.90
2018-01-15T02:22:45.924Z,20.60
2018-01-15T02:25:12.454Z,17.00
2018-01-15T02:27:38.994Z,17.20
2018-01-15T02:30:06.168Z,18.17
2018-01-15T02:32:32.687Z,17.12
2018-01-15T02:34:59.106Z,18.02
2018-01-15T02:37:25.517Z,22.85
2018-01-15T02:39:51.989Z,17.83
2018-01-15T02:42:24.289Z,20.75
2018-01-15T02:44:51.030Z,23.10
2018-01-15T02:47:17.460Z,20.10
2018-01-15T02:49:43.761Z,18.98
2018-01-15T02:52:09.981Z,20.08
2018-01-15T02:54:36.329Z,15.15
2018-01-15T02:57:02.486Z,18.75
2018-01-15T02:59:29.273Z,20.33
2018-01-15T03:01:55.401Z,15.98
2018-01-15T03:04:21.560Z,19.00
2018-01-15T03:06:47.711Z,19.25
2018-01-15T03:09:13.964Z,18.77
2018-01-15T03:11:40.193Z,17.90
2018-01-15T03:14:06.298Z,19.05
2018-01-15T03:16:32.488Z,19.33
2018-01-15T03:18:58.650Z,22.65
2018-01-15T03:21:24.788Z,18.05
2018-01-15T03:23:50.897Z,20.65
2018-01-15T03:26:17.050Z,20.25
2018-01-15T03:28:43.230Z,18.83
2018-01-15T03:31:09.367Z,19.83
2018-01-15T03:33:35.522Z,16.37
2018-01-15T03:36:01.703Z,16.02
2018-01-15T03:38:27.923Z,19.08
2018-01-15T03:40:54.915Z,16.60
2018-01-15T03:43:21.105Z,18.95
2018-01-15T03:45:47.292Z,17.80
2018-01-15T03:48:13.497Z,18.35
2018-01-15T03:50:39.614Z,18.20
2018-01-15T03:53:05.758Z,18.37
2018-01-15T03:55:32.808Z,16.40
2018-01-15T03:57:59.271Z,17.20
2018-01-15T04:00:25.919Z,16.90
2018-01-15T04:02:52.397Z,16.95
2018-01-15T04:05:18.722Z,16.27
2018-01-15T04:07:45.120Z,18.83
2018-01-15T04:10:11.350Z,18.25
2018-01-15T04:12:37.521Z,17.50
2018-01-15T04:15:04.263Z,19.23
2018-01-15T04:17:30.662Z,14.55
2018-01-15T04:19:57.616Z,17.60
2018-01-15T04:22:23.994Z,18.02
2018-01-15T04:24:50.454Z,19.83
2018-01-15T04:27:17.104Z,20.17
2018-01-15T04:29:43.736Z,18.37
2018-01-15T04:32:10.021Z,19.27
2018-01-15T04:34:36.204Z,18.65
2018-01-15T04:37:02.439Z,15.20
2018-01-15T04:39:29.638Z,18.75
2018-01-15T04:41:57.638Z,17.30
2018-01-15T04:44:23.782Z,20.08
2018-01-15T04:46:51.009Z,16.75
2018-01-15T04:49:17.293Z,19.45
2018-01-15T04:51:44.221Z,17.35
2018-01-15T04:54:10.499Z,21.25
2018-01-15T04:56:37.583Z,18.83
2018-01-15T04:59:03.904Z,15.82
2018-01-15T05:01:30.976Z,16.65
2018-01-15T05:03:58.144Z,17.33
2018-01-15T05:06:24.613Z,17.42
2018-01-15T05:08:51.047Z,20.37
2018-01-15T05:11:17.357Z,17.42
2018-01-15T05:13:43.674Z,17.40
2018-01-15T05:16:09.870Z,20.70
2018-01-15T05:18:35.999Z,19.73
2018-01-15T05:21:02.887Z,17.85
2018-01-15T05:23:29.263Z,17.55
2018-01-15T05:25:55.458Z,16.95
2018-01-15T05:28:21.801Z,17.60
2018-01-15T05:30:50.111Z,19.27
2018-01-15T05:33:17.431Z,17.55
2018-01-15T05:35:44.494Z,21.65
2018-01-15T05:38:10.832Z,20.42
2018-01-15T05:40:37.038Z,17.20
2018-01-15T05:43:05.172Z,16.48
2018-01-15T05:45:31.606Z,15.80
2018-01-15T05:47:57.867Z,18.45
2018-01-15T05:50:24.062Z,17.60
2018-01-15T05:52:52.157Z,19.02
2018-01-15T05:55:19.668Z,17.62
2018-01-15T05:57:46.377Z,18.42
2018-01-15T06:00:14.027Z,19.92
2018-01-15T06:02:40.318Z,20.90
2018-01-15T06:05:06.583Z,16.35
2018-01-15T06:07:32.810Z,16.65
2018-01-15T06:10:00.127Z,18.27
2018-01-15T06:12:26.355Z,19.85
2018-01-15T06:14:52.465Z,16.62
2018-01-15T06:17:19.010Z,17.02
2018-01-15T06:19:45.397Z,22.65
2018-01-15T06:22:11.797Z,18.85
2018-01-15T06:24:38.234Z,17.30
2018-01-15T06:27:04.725Z,17.77
2018-01-15T06:29:31.743Z,17.35
2018-01-15T06:31:58.275Z,17.58
2018-01-15T06:34:32.557Z,17.60
2018-01-15T06:36:58.777Z,19.33
2018-01-15T06:39:24.988Z,18.37
2018-01-15T06:41:51.129Z,21.33
2018-01-15T06:44:17.335Z,21.40
2018-01-15T06:46:43.489Z,15.98
2018-01-15T06:49:10.002Z,25.12
2018-01-15T06:51:36.140Z,20.05
2018-01-15T06:54:02.345Z,20.20
2018-01-15T06:56:28.576Z,18.70
2018-01-15T06:58:55.765Z,22.08
2018-01-15T07:01:22.172Z,19.00
2018-01-15T07:03:49.067Z,19.85
2018-01-15T07:06:15.537Z,19.15
2018-01-15T07:08:41.759Z,20.58
2018-01-15T07:11:07.907Z,18.30
2018-01-15T07:13:34.020Z,16.58
2018-01-15T07:16:00.264Z,20.50
2018-01-15T07:18:26.389Z,15.60
2018-01-15T07:20:53.285Z,18.67
2018-01-15T07:23:19.777Z,18.95
2018-01-15T07:25:45.993Z,15.52
2018-01-15T07:28:12.384Z,18.65
2018-01-15T07:30:38.795Z,19.17
2018-01-15T07:33:05.011Z,18.70
2018-01-15T07:35:32.504Z,16.15
2018-01-15T07:37:58.794Z,19.17
2018-01-15T07:40:25.157Z,15.60
2018-01-15T07:42:51.427Z,18.60
2018-01-15T07:45:21.597Z,20.58
2018-01-15T07:47:47.966Z,20.08
2018-01-15T07:50:14.278Z,17.70
2018-01-15T07:52:41.195Z,17.50
2018-01-15T07:55:07.907Z,18.12
2018-01-15T07:57:34.027Z,19.30
2018-01-15T08:00:00.929Z,17.85
2018-01-15T08:02:27.199Z,18.20
2018-01-15T08:04:53.526Z,17.85
2018-01-15T08:07:22.185Z,19.12
2018-01-15T08:09:48.665Z,16.42
2018-01-15T08:12:14.996Z,20.42
2018-01-15T08:14:45.387Z,14.60
2018-01-15T08:17:12.044Z,21.95
2018-01-15T08:19:38.298Z,16.77
2018-01-15T08:22:04.538Z,17.95
2018-01-15T08:24:31.518Z,18.65
2018-01-15T08:26:57.759Z,18.62
2018-01-15T08:29:24.056Z,15.52
2018-01-15T08:31:50.340Z,17.40
2018-01-15T08:34:16.740Z,17.42
2018-01-15T08:36:43.833Z,14.52
2018-01-15T08:39:10.041Z,14.87
2018-01-15T08:41:36.182Z,15.82
2018-01-15T08:44:02.516Z,18.65
2018-01-15T08:46:29.053Z,17.62
2018-01-15T08:48:55.401Z,20.17
2018-01-15T08:51:22.184Z,17.10
2018-01-15T08:53:48.653Z,16.83
2018-01-15T08:56:15.097Z,15.90
2018-01-15T08:58:41.587Z,18.80
2018-01-15T09:01:07.840Z,16.12
2018-01-15T09:03:34.109Z,14.73
2018-01-15T09:06:00.306Z,13.75
2018-01-15T09:08:26.608Z,14.30
2018-01-15T09:10:52.794Z,15.80
2018-01-15T09:13:19.041Z,16.00
2018-01-15T09:15:45.982Z,18.95
2018-01-15T09:18:12.278Z,15.23
2018-01-15T09:20:39.572Z,19.02
2018-01-15T09:23:05.737Z,16.30
2018-01-15T09:25:32.122Z,18.50
2018-01-15T09:27:58.426Z,14.57
2018-01-15T09:30:29.815Z,14.20
2018-01-15T09:32:56.090Z,11.45
2018-01-15T09:35:22.457Z,15.13
2018-01-15T09:37:48.713Z,13.02
2018-01-15T09:40:15.015Z,12.88
2018-01-15T09:42:41.349Z,15.75
2018-01-15T09:45:18.675Z,15.02
2018-01-15T09:47:46.057Z,15.23
2018-01-15T09:50:13.080Z,17.37
2018-01-15T09:52:39.810Z,15.20
2018-01-15T09:55:06.073Z,16.77
2018-01-15T09:57:32.306Z,16.30
2018-01-15T10:00:00.478Z,20.58
2018-01-15T10:02:29.524Z,16.05
2018-01-15T10:04:56.130Z,11.73
2018-01-15T10:07:22.440Z,15.45
2018-01-15T10:09:48.684Z,14.32
2018-01-15T10:12:15.590Z,15.00
2018-01-15T10:14:48.561Z,13.68
2018-01-15T10:17:14.760Z,11.65
2018-01-15T10:19:41.170Z,14.40
2018-01-15T10:22:07.306Z,13.62
2018-01-15T10:24:33.543Z,16.15
2018-01-15T10:27:00.847Z,15.88
2018-01-15T10:29:29.969Z,14.80
2018-01-15T10:31:56.601Z,12.98
2018-01-15T10:34:23.079Z,13.05
2018-01-15T10:36:49.898Z,18.73
2018-01-15T10:39:16.219Z,14.00
2018-01-15T10:41:42.988Z,10.25
2018-01-15T10:47:19.550Z,16.62
2018-01-15T10:49:46.242Z,13.60
2018-01-15T10:52:12.735Z,14.43
2018-01-15T10:54:40.306Z,13.20
2018-01-15T10:57:06.612Z,13.02
2018-01-15T11:02:04.278Z,16.10
2018-01-15T11:04:30.786Z,17.35
2018-01-15T11:06:57.205Z,13.52
2018-01-15T11:09:23.593Z,13.93
2018-01-15T11:12:05.478Z,17.12
2018-01-15T11:20:31.926Z,15.45
2018-01-15T11:22:58.349Z,14.45
2018-01-15T11:45:47.092Z,8.70
2018-01-15T11:54:14.829Z,10.75
2018-01-15T11:56:42.050Z,10.68
2018-01-15T11:59:08.428Z,8.98
2018-01-15T12:01:41.223Z,10.35
2018-01-15T12:04:07.657Z,11.18
2018-01-15T12:06:34.762Z,10.35
2018-01-15T12:09:02.002Z,10.63
2018-01-15T12:11:28.401Z,11.90
2018-01-15T12:13:54.824Z,13.62
2018-01-15T12:16:21.835Z,12.25
2018-01-15T12:18:50.087Z,11.30
2018-01-15T12:21:16.625Z,11.65
2018-01-15T12:23:42.945Z,12.70
2018-01-15T12:26:09.246Z,10.80
2018-01-15T12:28:36.295Z,8.80
2018-01-15T12:31:06.598Z,13.73
2018-01-15T12:33:39.841Z,15.00
2018-01-15T12:36:06.234Z,15.73
2018-01-15T12:38:32.968Z,13.90
2018-01-15T12:41:01.069Z,14.80
2018-01-15T12:43:27.492Z,14.38
2018-01-15T12:45:53.850Z,13.45
2018-01-15T12:48:20.540Z,12.05
2018-01-15T12:50:52.261Z,12.82
2018-01-15T12:53:18.675Z,14.27
2018-01-15T12:55:45.533Z,11.43
2018-01-15T12:58:12.447Z,12.70
2018-01-15T13:00:38.906Z,14.25
2018-01-15T13:03:06.645Z,14.05
2018-01-15T13:05:46.672Z,14.43
2018-01-15T13:08:25.776Z,12.57
2018-01-15T13:10:52.194Z,13.23
2018-01-15T13:13:18.639Z,13.65
2018-01-15T13:15:50.500Z,11.40
2018-01-15T13:18:16.681Z,12.85
2018-01-15T13:20:43.119Z,13.95
2018-01-15T13:23:10.520Z,13.62
2018-01-15T13:25:36.903Z,14.27
2018-01-15T13:28:03.600Z,12.00
2018-01-15T13:30:32.090Z,17.00
2018-01-15T13:33:00.231Z,12.68
2018-01-15T13:35:26.805Z,11.75
2018-01-15T13:37:56.116Z,12.43
2018-01-15T13:40:22.703Z,14.23
2018-01-15T13:42:49.134Z,11.10
2018-01-15T13:45:16.259Z,12.70
2018-01-15T13:47:42.625Z,11.12
2018-01-15T13:50:10.444Z,12.10
2018-01-15T13:52:59.041Z,10.93
2018-01-15T14:04:25.949Z,15.15
2018-01-15T14:10:07.645Z,12.60
2018-01-15T14:15:54.895Z,12.95
2018-01-15T14:18:22.455Z,12.32
2018-01-15T14:20:59.763Z,12.25
2018-01-15T14:23:28.796Z,13.77
2018-01-15T14:28:52.529Z,11.93
2018-01-15T14:31:24.246Z,9.85
2018-01-15T14:36:25.926Z,17.12
2018-01-15T14:38:53.333Z,9.30
2018-01-15T14:41:20.050Z,13.07
2018-01-15T14:43:49.279Z,8.18
2018-01-15T14:46:17.318Z,11.57
2018-01-15T14:48:47.849Z,8.77
2018-01-15T14:51:14.331Z,10.27
2018-01-15T14:53:40.795Z,10.98
2018-01-15T14:59:04.780Z,11.48
2018-01-15T15:04:13.357Z,10.85
2018-01-15T15:06:40.507Z,10.27
2018-01-15T15:12:17.787Z,8.10
2018-01-15T15:14:52.968Z,8.30
2018-01-15T15:17:20.311Z,9.45
2018-01-15T15:22:28.961Z,7.70
2018-01-15T15:24:58.518Z,12.50
2018-01-15T15:27:25.082Z,10.60
2018-01-15T15:29:53.219Z,9.82
2018-01-15T15:32:20.949Z,10.57
2018-01-15T15:34:47.914Z,6.97
2018-01-15T15:37:18.492Z,8.07
2018-01-15T15:42:55.704Z,7.35
2018-01-15T15:45:22.297Z,7.28
2018-01-15T15:47:48.877Z,7.62
2018-01-15T15:50:21.125Z,6.53
2018-01-15T15:52:48.297Z,5.53
2018-01-15T15:55:25.114Z,6.07
2018-01-15T15:57:58.414Z,6.25
2018-01-15T16:00:25.682Z,7.28
2018-01-15T16:03:01.849Z,8.18
2018-01-15T16:05:27.992Z,7.70
2018-01-15T16:07:54.182Z,6.43
2018-01-15T16:10:22.459Z,6.20
2018-01-15T16:12:48.819Z,6.60
2018-01-15T16:15:15.272Z,6.57
2018-01-15T16:17:53.606Z,6.00
2018-01-15T16:20:20.345Z,4.65
2018-01-15T16:22:56.859Z,4.05
2018-01-15T16:25:23.489Z,6.85
2018-01-15T16:27:50.760Z,5.57
2018-01-15T16:30:17.904Z,5.65
2018-01-15T16:32:57.628Z,5.85
2018-01-15T16:35:24.198Z,5.15
2018-01-15T16:37:57.642Z,5.62
2018-01-15T16:40:26.655Z,5.05
2018-01-15T16:42:53.718Z,3.40
2018-01-15T16:45:21.146Z,4.12
2018-01-15T16:47:48.172Z,6.62
2018-01-15T16:50:20.486Z,4.15
2018-01-15T16:52:49.151Z,5.57
2018-01-15T16:55:17.433Z,4.30
2018-01-15T16:57:44.989Z,4.40
2018-01-15T17:00:15.147Z,4.70
2018-01-15T17:02:41.924Z,4.65
2018-01-15T17:05:08.339Z,5.62
2018-01-15T17:10:06.789Z,5.97
2018-01-15T17:12:33.804Z,6.10
2018-01-15T17:15:00.256Z,6.53
2018-01-15T17:17:26.681Z,8.23
2018-01-15T17:19:53.117Z,8.63
2018-01-15T17:25:01.631Z,6.45
2018-01-15T17:27:28.259Z,5.90
2018-01-15T17:29:55.118Z,6.55
2018-01-15T17:32:22.283Z,6.32
2018-01-15T17:34:56.313Z,5.50
2018-01-15T17:37:31.322Z,6.82
2018-01-15T17:39:58.791Z,2.78
2018-01-15T17:42:26.592Z,4.95
2018-01-15T17:44:55.561Z,4.12
2018-01-15T17:47:35.376Z,4.60
2018-01-15T17:50:04.826Z,3.83
2018-01-15T17:52:37.819Z,4.45
2018-01-15T17:55:04.197Z,3.42
2018-01-15T17:57:35.416Z,3.72
2018-01-15T18:00:04.450Z,3.40
2018-01-15T18:02:30.980Z,4.85
2018-01-15T18:05:17.550Z,2.83
2018-01-15T18:07:49.312Z,3.67
2018-01-15T18:10:23.992Z,2.85
2018-01-15T18:12:54.610Z,3.28
2018-01-15T18:15:21.364Z,3.20
2018-01-15T18:17:51.923Z,4.22
2018-01-15T18:20:21.912Z,2.83
2018-01-15T18:22:52.213Z,3.15
2018-01-15T18:25:23.280Z,2.20
2018-01-15T18:27:53.484Z,3.72
2018-01-15T18:30:28.344Z,2.95
2018-01-15T18:32:56.328Z,2.08
2018-01-15T18:35:34.855Z,2.17
2018-01-15T18:38:05.056Z,4.15
2018-01-15T18:40:35.288Z,4.43
2018-01-15T18:43:11.651Z,3.17
2018-01-15T18:51:41.667Z,2.30
2018-01-15T18:57:22.672Z,2.05
2018-01-15T18:59:50.774Z,2.22
2018-01-15T19:05:27.795Z,2.22
2018-01-15T19:07:54.486Z,1.37
2018-01-15T19:13:35.706Z,1.55
2018-01-15T19:16:02.176Z,3.00
2018-01-15T19:18:28.409Z,1.20
2018-01-15T19:20:54.720Z,1.23
2018-01-15T19:23:31.462Z,1.17
2018-01-15T19:25:59.828Z,1.23
2018-01-15T19:28:27.208Z,2.35
2018-01-15T19:30:53.529Z,0.70
2018-01-15T19:33:21.464Z,1.20
2018-01-15T19:36:05.723Z,0.90
2018-01-15T19:38:32.541Z,0.60
2018-01-15T19:40:59.133Z,1.20
2018-01-15T19:43:34.155Z,1.20
2018-01-15T19:46:07.073Z,0.80
2018-01-15T19:48:39.268Z,1.25
2018-01-15T19:54:23.419Z,0.80
2018-01-15T20:00:11.647Z,0.90
2018-01-15T20:02:44.047Z,0.73
2018-01-15T20:05:23.869Z,0.80
2018-01-15T20:10:42.046Z,1.40
2018-01-15T20:13:08.913Z,0.60
2018-01-15T20:19:00.746Z,1.30
2018-01-15T20:21:27.018Z,3.00
2018-01-15T20:23:53.390Z,0.80
2018-01-15T20:26:19.593Z,0.95
2018-01-15T20:31:52.049Z,0.93
2018-01-15T20:34:27.368Z,0.82
2018-01-15T20:36:56.839Z,0.90
2018-01-15T20:39:23.363Z,0.88
2018-01-15T20:41:50.071Z,1.23
2018-01-15T20:50:54.438Z,1.25
2018-01-15T20:53:21.170Z,1.50
2018-01-15T20:55:58.330Z,2.37
2018-01-15T20:58:25.277Z,1.20
2018-01-15T21:01:00.967Z,1.70
2018-01-15T21:03:31.083Z,0.88
2018-01-15T21:05:57.268Z,1.02
2018-01-15T21:08:30.444Z,0.90
2018-01-15T21:10:57.126Z,0.85
2018-01-15T21:13:31.835Z,16.00
2018-01-15T21:15:58.354Z,0.85
2018-01-15T21:18:24.874Z,1.75
2018-01-15T21:20:51.069Z,1.00
2018-01-15T21:23:17.215Z,0.90
2018-01-15T21:25:43.874Z,0.85
2018-01-15T21:28:27.629Z,0.88
2018-01-15T21:30:55.230Z,1.87
2018-01-15T21:33:21.910Z,1.00
2018-01-15T21:35:48.584Z,1.00
2018-01-15T21:41:14.615Z,1.77
2018-01-15T21:43:49.853Z,0.95
2018-01-15T21:46:16.308Z,1.30
2018-01-15T21:48:42.752Z,0.80
2018-01-15T21:51:10.130Z,0.85
2018-01-15T21:53:37.587Z,0.70
2018-01-15T21:56:04.087Z,2.00
2018-01-15T21:58:30.633Z,0.77
2018-01-15T22:00:57.112Z,1.08
2018-01-15T22:06:33.542Z,1.20
2018-01-15T22:08:59.653Z,1.70
2018-01-15T22:11:26.170Z,2.60
2018-01-15T22:13:59.067Z,2.40
2018-01-15T22:16:25.521Z,2.00
2018-01-15T22:18:51.756Z,2.53
2018-01-15T22:21:18.552Z,2.58
2018-01-15T22:23:45.023Z,2.85
2018-01-15T22:29:11.184Z,2.50
2018-01-15T22:31:37.429Z,3.03
2018-01-15T22:34:07.511Z,4.47
2018-01-15T22:36:34.035Z,2.53
2018-01-15T22:45:18.259Z,5.22
2018-01-15T22:48:03.398Z,2.83
2018-01-15T22:50:34.441Z,3.17
2018-01-15T22:53:06.547Z,5.60
2018-01-15T22:55:35.410Z,2.83
2018-01-15T22:58:05.148Z,3.87
2018-01-15T23:00:36.029Z,3.85
2018-01-15T23:06:06.570Z,3.78
2018-01-15T23:08:39.212Z,4.37
2018-01-15T23:11:06.002Z,4.90
2018-01-15T23:13:35.490Z,4.68
2018-01-15T23:16:03.042Z,4.57
2018-01-15T23:18:35.091Z,4.97
2018-01-15T23:21:05.600Z,5.65
2018-01-15T23:23:33.816Z,6.65
2018-01-15T23:26:02.065Z,4.82
2018-01-15T23:28:36.103Z,4.57
2018-01-15T23:31:04.914Z,3.72
2018-01-15T23:33:35.766Z,6.85
2018-01-15T23:36:05.351Z,3.35
2018-01-15T23:38:35.039Z,3.50
2018-01-15T23:41:05.909Z,3.42
2018-01-15T23:43:35.586Z,3.55
2018-01-15T23:46:11.290Z,2.78
2018-01-15T23:48:38.929Z,3.15
2018-01-15T23:51:06.741Z,3.30
2018-01-15T23:53:35.898Z,3.00
2018-01-15T23:59:01.001Z,3.80
